createdAt,value
2022-12-08T00:03:20.775Z,1.00
2022-12-08T00:08:37.300Z,0.98
2022-12-08T00:13:36.487Z,0.98
2022-12-08T00:18:35.458Z,0.97
2022-12-08T00:23:34.545Z,1.00
2022-12-08T00:28:35.052Z,1.07
2022-12-08T00:33:33.731Z,1.12
2022-12-08T00:38:31.963Z,1.17
2022-12-08T00:43:33.756Z,1.20
2022-12-08T00:48:32.806Z,1.20
2022-12-08T00:53:33.560Z,1.18
2022-12-08T00:58:32.573Z,1.14
2022-12-08T01:03:32.105Z,1.10
2022-12-08T01:08:32.083Z,1.10
2022-12-08T01:13:31.407Z,1.12
2022-12-08T01:18:31.837Z,1.15
2022-12-08T01:23:30.709Z,1.17
2022-12-08T01:28:30.032Z,1.17
2022-12-08T01:33:30.089Z,1.18
2022-12-08T01:38:29.015Z,1.16
2022-12-08T01:43:41.681Z,1.16
2022-12-08T01:48:41.146Z,1.13
2022-12-08T01:53:40.340Z,1.13
2022-12-08T01:58:45.134Z,1.09
2022-12-08T02:03:51.638Z,1.05
2022-12-08T02:08:52.134Z,1.01
2022-12-08T02:13:54.287Z,0.99
2022-12-08T02:19:30.689Z,0.97
2022-12-08T02:24:40.621Z,0.97
2022-12-08T02:30:08.086Z,0.95
2022-12-08T02:35:12.491Z,0.93
2022-12-08T02:40:24.107Z,0.89
2022-12-08T02:45:31.772Z,0.84
2022-12-08T02:50:31.345Z,0.80
2022-12-08T02:55:41.816Z,0.77
2022-12-08T03:00:55.499Z,0.76
2022-12-08T03:06:13.703Z,0.78
2022-12-08T03:11:22.685Z,0.81
2022-12-08T03:16:28.259Z,0.84
2022-12-08T03:21:27.814Z,0.85
2022-12-08T03:26:35.840Z,0.85
2022-12-08T03:31:43.983Z,0.84
2022-12-08T03:36:47.333Z,0.83
2022-12-08T03:41:47.026Z,0.80
2022-12-08T03:46:46.085Z,0.78
2022-12-08T03:51:44.862Z,0.77
2022-12-08T03:56:44.360Z,0.75
2022-12-08T04:01:43.525Z,0.73
2022-12-08T04:06:42.841Z,0.73
2022-12-08T04:11:41.880Z,0.74
2022-12-08T04:16:40.541Z,0.76
2022-12-08T04:21:40.123Z,0.79
2022-12-08T04:26:38.836Z,0.81
2022-12-08T04:31:38.248Z,0.84
2022-12-08T04:36:37.139Z,0.85
2022-12-08T04:41:36.593Z,0.84
2022-12-08T04:46:40.204Z,0.79
2022-12-08T04:51:42.644Z,0.74
2022-12-08T04:56:41.897Z,0.65
2022-12-08T05:01:41.145Z,0.57
2022-12-08T05:06:40.502Z,0.48
2022-12-08T05:11:48.300Z,0.39
2022-12-08T05:16:49.656Z,0.34
2022-12-08T05:21:48.463Z,0.30
2022-12-08T05:26:47.795Z,0.31
2022-12-08T05:31:46.880Z,0.35
2022-12-08T05:36:45.315Z,0.41
2022-12-08T05:41:45.093Z,0.49
2022-12-08T05:46:44.415Z,0.54
2022-12-08T05:51:43.442Z,0.56
2022-12-08T05:56:43.365Z,0.56
2022-12-08T06:01:43.049Z,0.55
2022-12-08T06:06:41.823Z,0.55
2022-12-08T06:11:40.687Z,0.52
2022-12-08T06:16:39.673Z,0.50
2022-12-08T06:21:39.059Z,0.48
2022-12-08T06:26:40.245Z,0.47
2022-12-08T06:31:39.719Z,0.46
2022-12-08T06:36:39.114Z,0.49
2022-12-08T06:41:58.856Z,0.53
2022-12-08T06:46:57.727Z,0.59
2022-12-08T06:51:57.186Z,0.65
2022-12-08T06:57:01.681Z,0.71
2022-12-08T07:02:04.651Z,0.76
2022-12-08T07:07:04.163Z,0.81
2022-12-08T07:12:03.092Z,0.86
2022-12-08T07:17:02.494Z,0.91
2022-12-08T07:22:02.111Z,0.96
2022-12-08T07:27:01.278Z,1.00
2022-12-08T07:32:00.484Z,1.04
2022-12-08T07:36:59.872Z,1.07
2022-12-08T07:42:00.109Z,1.11
2022-12-08T07:46:59.412Z,1.20
2022-12-08T07:51:58.603Z,1.32
2022-12-08T07:57:00.370Z,1.43
2022-12-08T08:02:22.303Z,1.50
2022-12-08T08:07:18.379Z,1.54
2022-12-08T08:12:33.394Z,1.53
2022-12-08T08:17:33.580Z,1.51
2022-12-08T08:22:33.360Z,1.54
2022-12-08T08:27:32.549Z,1.62
2022-12-08T08:32:35.973Z,1.66
2022-12-08T08:37:35.859Z,1.69
2022-12-08T08:42:34.573Z,1.70
2022-12-08T08:47:33.689Z,1.70
2022-12-08T08:52:33.040Z,1.72
2022-12-08T08:57:32.795Z,1.75
2022-12-08T09:02:31.926Z,1.77
2022-12-08T09:07:31.770Z,1.85
2022-12-08T09:12:30.777Z,1.93
2022-12-08T09:17:30.165Z,2.00
2022-12-08T09:22:29.561Z,2.06
2022-12-08T09:27:28.547Z,2.16
2022-12-08T09:32:27.785Z,2.27
2022-12-08T09:37:26.651Z,2.38
2022-12-08T09:42:46.245Z,2.44
2022-12-08T09:47:59.285Z,2.52
2022-12-08T09:53:09.157Z,2.68
2022-12-08T09:58:18.723Z,2.94
2022-12-08T10:03:18.889Z,3.10
2022-12-08T10:08:27.559Z,3.20
2022-12-08T10:13:39.634Z,3.28
2022-12-08T10:18:39.453Z,3.49
2022-12-08T10:23:43.842Z,3.63
2022-12-08T10:28:45.387Z,3.67
2022-12-08T10:33:45.369Z,3.63
2022-12-08T10:38:45.346Z,3.75
2022-12-08T10:43:51.155Z,3.89
2022-12-08T10:48:56.208Z,4.00
2022-12-08T10:53:55.966Z,4.11
2022-12-08T10:59:16.085Z,4.22
2022-12-08T11:04:21.726Z,4.23
2022-12-08T11:09:48.739Z,4.27
2022-12-08T11:15:02.574Z,4.37
2022-12-08T11:20:06.733Z,4.41
2022-12-08T11:25:16.300Z,4.40
2022-12-08T11:30:23.779Z,4.35
2022-12-08T11:35:31.257Z,4.23
2022-12-08T11:40:37.100Z,4.16
2022-12-08T11:45:39.043Z,4.13
2022-12-08T11:50:48.312Z,4.13
2022-12-08T11:55:54.716Z,4.13
2022-12-08T12:00:54.149Z,4.16
2022-12-08T12:06:30.825Z,4.18
2022-12-08T12:12:00.314Z,4.16
2022-12-08T12:17:22.448Z,4.16
2022-12-08T12:22:26.884Z,4.19
2022-12-08T12:27:34.185Z,4.15
2022-12-08T12:32:50.708Z,4.09
2022-12-08T12:37:52.068Z,4.03
2022-12-08T12:43:26.556Z,4.15
2022-12-08T12:48:31.907Z,4.31
2022-12-08T12:53:52.880Z,4.39
2022-12-08T12:58:54.934Z,4.40
2022-12-08T13:04:07.805Z,4.41
2022-12-08T13:09:07.975Z,4.40
2022-12-08T13:14:08.133Z,4.36
2022-12-08T13:19:16.021Z,4.30
2022-12-08T13:24:35.498Z,4.19
2022-12-08T13:29:36.330Z,4.07
2022-12-08T13:34:42.805Z,3.99
2022-12-08T13:39:54.679Z,3.88
2022-12-08T13:45:21.764Z,3.76
2022-12-08T14:01:17.722Z,3.39
2022-12-08T14:06:26.486Z,3.31
2022-12-08T14:11:36.920Z,3.22
2022-12-08T14:16:42.871Z,3.15
2022-12-08T14:21:41.761Z,3.06
2022-12-08T14:26:41.010Z,2.94
2022-12-08T14:31:40.043Z,2.85
2022-12-08T14:36:39.793Z,2.76
2022-12-08T14:41:39.571Z,2.68
2022-12-08T14:46:38.712Z,2.60
2022-12-08T14:51:38.400Z,2.56
2022-12-08T14:56:48.918Z,2.56
2022-12-08T15:01:51.138Z,2.56
2022-12-08T15:07:00.339Z,2.57
2022-12-08T15:12:08.995Z,2.56
2022-12-08T15:17:31.367Z,2.54
2022-12-08T15:22:32.202Z,2.53
2022-12-08T15:27:34.962Z,2.52
2022-12-08T15:32:40.433Z,2.50
2022-12-08T15:37:38.917Z,2.50
2022-12-08T15:42:38.145Z,2.51
2022-12-08T15:47:37.279Z,2.53
2022-12-08T15:52:37.070Z,2.55
2022-12-08T15:58:24.871Z,2.60
2022-12-08T16:14:03.135Z,2.73
2022-12-08T16:19:17.144Z,2.76
2022-12-08T16:24:16.365Z,2.78
2022-12-08T16:29:23.107Z,2.78
2022-12-08T16:34:21.617Z,2.80
2022-12-08T16:39:20.901Z,2.79
2022-12-08T16:44:19.812Z,2.79
2022-12-08T16:49:18.535Z,2.78
2022-12-08T16:54:17.513Z,2.78
2022-12-08T16:59:16.891Z,2.78
2022-12-08T17:04:31.434Z,2.77
2022-12-08T17:09:32.229Z,2.77
2022-12-08T17:14:30.596Z,2.76
2022-12-08T17:19:29.213Z,2.77
2022-12-08T17:24:29.318Z,2.78
2022-12-08T17:29:28.608Z,2.77
2022-12-08T17:34:28.017Z,2.76
2022-12-08T17:39:27.455Z,2.74
2022-12-08T17:44:28.334Z,2.71
2022-12-08T17:49:30.975Z,2.68
2022-12-08T17:54:31.811Z,2.67
2022-12-08T17:59:32.052Z,2.68
2022-12-08T18:04:31.035Z,2.69
2022-12-08T18:09:33.950Z,2.73
2022-12-08T18:14:33.374Z,2.77
2022-12-08T18:19:32.884Z,2.82
2022-12-08T18:24:33.142Z,2.87
2022-12-08T18:29:31.582Z,2.92
2022-12-08T18:34:30.162Z,2.98
2022-12-08T18:39:32.517Z,3.03
2022-12-08T18:44:32.363Z,3.08
2022-12-08T18:49:30.744Z,3.12
2022-12-08T18:54:50.084Z,3.15
2022-12-08T18:59:49.385Z,3.18
2022-12-08T19:04:49.023Z,3.20
2022-12-08T19:09:48.220Z,3.23
2022-12-08T19:14:46.940Z,3.24
2022-12-08T19:19:45.679Z,3.22
2022-12-08T19:24:44.962Z,3.18
2022-12-08T19:29:43.575Z,3.10
2022-12-08T19:34:43.659Z,2.96
2022-12-08T19:40:00.681Z,2.79
2022-12-08T19:45:03.716Z,2.61
2022-12-08T19:50:20.811Z,2.45
2022-12-08T19:55:19.763Z,2.31
2022-12-08T20:00:22.146Z,2.19
2022-12-08T20:05:21.328Z,2.10
2022-12-08T20:10:24.430Z,2.05
2022-12-08T20:15:23.860Z,2.00
2022-12-08T20:20:24.012Z,1.93
2022-12-08T20:25:23.614Z,1.86
2022-12-08T20:30:22.746Z,1.81
2022-12-08T20:35:21.680Z,1.76
2022-12-08T20:40:21.444Z,1.71
2022-12-08T20:45:21.470Z,1.65
2022-12-08T20:50:20.763Z,1.60
2022-12-08T20:55:19.997Z,1.54
2022-12-08T21:00:21.523Z,1.50
2022-12-08T21:05:20.658Z,1.46
2022-12-08T21:10:19.704Z,1.42
2022-12-08T21:15:19.177Z,1.38
2022-12-08T21:20:18.676Z,1.33
2022-12-08T21:25:17.718Z,1.29
2022-12-08T21:30:19.115Z,1.24
2022-12-08T21:35:18.376Z,1.19
2022-12-08T21:40:19.791Z,1.14
2022-12-08T21:45:21.993Z,1.09
2022-12-08T21:50:22.796Z,1.05
2022-12-08T21:55:23.947Z,0.99
2022-12-08T22:00:26.716Z,0.93
2022-12-08T22:05:26.730Z,0.87
2022-12-08T22:10:25.790Z,0.80
2022-12-08T22:15:26.159Z,0.74
2022-12-08T22:20:26.688Z,0.65
2022-12-08T22:25:28.028Z,0.58
2022-12-08T22:30:27.605Z,0.50
2022-12-08T22:35:27.057Z,0.42
2022-12-08T22:40:26.639Z,0.36
2022-12-08T22:45:25.979Z,0.31
2022-12-08T22:50:25.625Z,0.27
2022-12-08T22:55:25.141Z,0.25
2022-12-08T23:00:25.557Z,0.21
2022-12-08T23:05:25.320Z,0.16
2022-12-08T23:10:25.162Z,0.11
2022-12-08T23:15:24.568Z,0.07
2022-12-08T23:20:24.891Z,0.03
2022-12-08T23:25:24.306Z,-0.01
2022-12-08T23:30:23.137Z,-0.05
2022-12-08T23:35:23.126Z,-0.09
2022-12-08T23:40:22.490Z,-0.13
2022-12-08T23:45:22.239Z,-0.18
2022-12-08T23:50:21.558Z,-0.22
2022-12-08T23:55:21.332Z,-0.26
